sensor_id;sensor_type;location;lat;lon;timestamp;P1;durP1;ratioP1;P2;durP2;ratioP2
10617;SDS011;5356;43.526;26.534;2022-12-18T00:01:20;3.10;;;2.17;;
10617;SDS011;5356;43.526;26.534;2022-12-18T00:03:46;4.32;;;2.40;;
10617;SDS011;5356;43.526;26.534;2022-12-18T00:06:11;4.65;;;3.03;;
10617;SDS011;5356;43.526;26.534;2022-12-18T00:08:38;4.40;;;2.40;;
10617;SDS011;5356;43.526;26.534;2022-12-18T00:11:05;3.92;;;2.30;;
10617;SDS011;5356;43.526;26.534;2022-12-18T00:13:33;4.05;;;2.50;;
10617;SDS011;5356;43.526;26.534;2022-12-18T00:16:12;3.92;;;2.47;;
10617;SDS011;5356;43.526;26.534;2022-12-18T00:18:45;4.00;;;2.20;;
10617;SDS011;5356;43.526;26.534;2022-12-18T00:21:11;4.18;;;2.65;;
10617;SDS011;5356;43.526;26.534;2022-12-18T00:23:38;3.47;;;2.40;;
10617;SDS011;5356;43.526;26.534;2022-12-18T00:26:07;3.88;;;2.20;;
10617;SDS011;5356;43.526;26.534;2022-12-18T00:28:36;3.80;;;2.50;;
10617;SDS011;5356;43.526;26.534;2022-12-18T00:31:02;4.53;;;2.67;;
10617;SDS011;5356;43.526;26.534;2022-12-18T00:33:32;4.93;;;3.03;;
10617;SDS011;5356;43.526;26.534;2022-12-18T00:36:02;5.38;;;2.60;;
10617;SDS011;5356;43.526;26.534;2022-12-18T00:38:35;4.57;;;2.60;;
10617;SDS011;5356;43.526;26.534;2022-12-18T00:41:01;4.40;;;2.60;;
10617;SDS011;5356;43.526;26.534;2022-12-18T00:43:26;4.85;;;2.78;;
10617;SDS011;5356;43.526;26.534;2022-12-18T00:45:52;5.28;;;3.10;;
10617;SDS011;5356;43.526;26.534;2022-12-18T00:48:18;4.03;;;2.83;;
10617;SDS011;5356;43.526;26.534;2022-12-18T00:50:43;5.97;;;3.13;;
10617;SDS011;5356;43.526;26.534;2022-12-18T00:53:09;4.88;;;2.90;;
10617;SDS011;5356;43.526;26.534;2022-12-18T00:55:34;5.13;;;2.47;;
10617;SDS011;5356;43.526;26.534;2022-12-18T00:58:02;5.30;;;2.78;;
10617;SDS011;5356;43.526;26.534;2022-12-18T01:00:27;4.97;;;3.05;;
10617;SDS011;5356;43.526;26.534;2022-12-18T01:02:52;5.22;;;2.78;;
10617;SDS011;5356;43.526;26.534;2022-12-18T01:05:18;3.95;;;2.90;;
10617;SDS011;5356;43.526;26.534;2022-12-18T01:07:43;4.85;;;3.00;;
10617;SDS011;5356;43.526;26.534;2022-12-18T01:10:09;5.15;;;2.83;;
10617;SDS011;5356;43.526;26.534;2022-12-18T01:12:37;4.68;;;2.95;;
10617;SDS011;5356;43.526;26.534;2022-12-18T01:15:02;7.38;;;3.72;;
10617;SDS011;5356;43.526;26.534;2022-12-18T01:17:28;5.43;;;2.95;;
10617;SDS011;5356;43.526;26.534;2022-12-18T01:19:54;7.93;;;3.80;;
10617;SDS011;5356;43.526;26.534;2022-12-18T01:22:19;6.68;;;3.45;;
10617;SDS011;5356;43.526;26.534;2022-12-18T01:24:45;8.20;;;4.15;;
10617;SDS011;5356;43.526;26.534;2022-12-18T01:27:10;9.05;;;3.80;;
10617;SDS011;5356;43.526;26.534;2022-12-18T01:29:36;8.38;;;4.00;;
10617;SDS011;5356;43.526;26.534;2022-12-18T01:32:01;10.10;;;3.80;;
10617;SDS011;5356;43.526;26.534;2022-12-18T01:34:26;8.43;;;4.45;;
10617;SDS011;5356;43.526;26.534;2022-12-18T01:36:52;8.00;;;3.97;;
10617;SDS011;5356;43.526;26.534;2022-12-18T01:39:18;6.85;;;3.72;;
10617;SDS011;5356;43.526;26.534;2022-12-18T01:41:44;6.25;;;3.65;;
10617;SDS011;5356;43.526;26.534;2022-12-18T01:47:54;7.35;;;4.28;;
10617;SDS011;5356;43.526;26.534;2022-12-18T01:50:08;7.57;;;4.38;;
10617;SDS011;5356;43.526;26.534;2022-12-18T01:53:02;7.60;;;3.90;;
10617;SDS011;5356;43.526;26.534;2022-12-18T01:55:32;9.52;;;5.15;;
10617;SDS011;5356;43.526;26.534;2022-12-18T01:58:03;7.32;;;3.95;;
10617;SDS011;5356;43.526;26.534;2022-12-18T02:00:29;7.03;;;4.30;;
10617;SDS011;5356;43.526;26.534;2022-12-18T02:02:55;9.00;;;4.47;;
10617;SDS011;5356;43.526;26.534;2022-12-18T02:08:10;7.85;;;3.90;;
10617;SDS011;5356;43.526;26.534;2022-12-18T02:16:20;8.00;;;4.07;;
10617;SDS011;5356;43.526;26.534;2022-12-18T02:18:54;8.23;;;4.32;;
10617;SDS011;5356;43.526;26.534;2022-12-18T02:21:39;8.88;;;4.80;;
10617;SDS011;5356;43.526;26.534;2022-12-18T02:27:16;10.15;;;4.85;;
10617;SDS011;5356;43.526;26.534;2022-12-18T02:29:48;11.65;;;5.68;;
10617;SDS011;5356;43.526;26.534;2022-12-18T02:32:21;8.23;;;4.72;;
10617;SDS011;5356;43.526;26.534;2022-12-18T02:34:52;8.98;;;4.88;;
10617;SDS011;5356;43.526;26.534;2022-12-18T02:37:21;8.73;;;4.20;;
10617;SDS011;5356;43.526;26.534;2022-12-18T02:39:48;13.32;;;5.47;;
10617;SDS011;5356;43.526;26.534;2022-12-18T02:42:16;10.77;;;5.82;;
10617;SDS011;5356;43.526;26.534;2022-12-18T02:44:47;11.13;;;5.38;;
10617;SDS011;5356;43.526;26.534;2022-12-18T02:47:15;10.43;;;4.95;;
10617;SDS011;5356;43.526;26.534;2022-12-18T02:58:12;11.88;;;5.15;;
10617;SDS011;5356;43.526;26.534;2022-12-18T03:00:41;10.27;;;5.90;;
10617;SDS011;5356;43.526;26.534;2022-12-18T03:03:14;12.75;;;5.18;;
10617;SDS011;5356;43.526;26.534;2022-12-18T03:05:48;9.00;;;5.15;;
10617;SDS011;5356;43.526;26.534;2022-12-18T03:08:26;11.68;;;5.90;;
10617;SDS011;5356;43.526;26.534;2022-12-18T03:10:56;11.63;;;5.53;;
10617;SDS011;5356;43.526;26.534;2022-12-18T03:13:32;13.50;;;6.32;;
10617;SDS011;5356;43.526;26.534;2022-12-18T03:16:05;14.05;;;5.57;;
10617;SDS011;5356;43.526;26.534;2022-12-18T03:18:47;10.25;;;5.53;;
10617;SDS011;5356;43.526;26.534;2022-12-18T03:21:21;11.18;;;4.75;;
10617;SDS011;5356;43.526;26.534;2022-12-18T03:23:53;11.25;;;5.97;;
10617;SDS011;5356;43.526;26.534;2022-12-18T03:26:22;10.25;;;4.97;;
10617;SDS011;5356;43.526;26.534;2022-12-18T03:28:58;11.18;;;6.13;;
10617;SDS011;5356;43.526;26.534;2022-12-18T03:31:28;12.88;;;5.20;;
10617;SDS011;5356;43.526;26.534;2022-12-18T03:33:57;11.43;;;6.22;;
10617;SDS011;5356;43.526;26.534;2022-12-18T03:36:26;13.73;;;6.35;;
10617;SDS011;5356;43.526;26.534;2022-12-18T03:38:55;15.48;;;8.02;;
10617;SDS011;5356;43.526;26.534;2022-12-18T03:41:31;13.82;;;6.57;;
10617;SDS011;5356;43.526;26.534;2022-12-18T03:47:09;15.65;;;6.78;;
10617;SDS011;5356;43.526;26.534;2022-12-18T03:52:49;12.65;;;6.57;;
10617;SDS011;5356;43.526;26.534;2022-12-18T03:55:24;13.23;;;6.80;;
10617;SDS011;5356;43.526;26.534;2022-12-18T03:57:52;14.23;;;8.27;;
10617;SDS011;5356;43.526;26.534;2022-12-18T04:00:19;17.20;;;7.57;;
10617;SDS011;5356;43.526;26.534;2022-12-18T04:02:49;12.45;;;6.93;;
10617;SDS011;5356;43.526;26.534;2022-12-18T04:05:18;13.45;;;6.90;;
10617;SDS011;5356;43.526;26.534;2022-12-18T04:07:45;14.75;;;6.65;;
10617;SDS011;5356;43.526;26.534;2022-12-18T04:10:13;19.02;;;7.65;;
10617;SDS011;5356;43.526;26.534;2022-12-18T04:12:40;13.55;;;6.93;;
10617;SDS011;5356;43.526;26.534;2022-12-18T04:15:05;14.60;;;7.47;;
10617;SDS011;5356;43.526;26.534;2022-12-18T04:17:32;12.15;;;7.30;;
10617;SDS011;5356;43.526;26.534;2022-12-18T04:19:57;12.68;;;6.78;;
10617;SDS011;5356;43.526;26.534;2022-12-18T04:22:22;14.63;;;6.97;;
10617;SDS011;5356;43.526;26.534;2022-12-18T04:24:48;13.68;;;6.57;;
10617;SDS011;5356;43.526;26.534;2022-12-18T04:27:13;15.27;;;7.22;;
10617;SDS011;5356;43.526;26.534;2022-12-18T04:29:39;18.58;;;7.45;;
10617;SDS011;5356;43.526;26.534;2022-12-18T04:32:04;12.00;;;7.00;;
10617;SDS011;5356;43.526;26.534;2022-12-18T04:34:30;16.42;;;7.15;;
10617;SDS011;5356;43.526;26.534;2022-12-18T04:36:55;14.18;;;7.18;;
10617;SDS011;5356;43.526;26.534;2022-12-18T04:39:21;14.32;;;8.00;;
10617;SDS011;5356;43.526;26.534;2022-12-18T04:41:46;18.35;;;7.80;;
10617;SDS011;5356;43.526;26.534;2022-12-18T04:44:12;16.88;;;8.35;;
10617;SDS011;5356;43.526;26.534;2022-12-18T04:46:38;20.30;;;8.35;;
10617;SDS011;5356;43.526;26.534;2022-12-18T04:49:03;17.73;;;7.85;;
10617;SDS011;5356;43.526;26.534;2022-12-18T04:51:29;12.80;;;7.53;;
10617;SDS011;5356;43.526;26.534;2022-12-18T04:53:54;18.63;;;8.45;;
10617;SDS011;5356;43.526;26.534;2022-12-18T04:56:20;17.23;;;8.15;;
10617;SDS011;5356;43.526;26.534;2022-12-18T04:58:46;18.55;;;9.35;;
10617;SDS011;5356;43.526;26.534;2022-12-18T05:01:12;20.48;;;8.05;;
10617;SDS011;5356;43.526;26.534;2022-12-18T05:03:39;23.45;;;10.70;;
10617;SDS011;5356;43.526;26.534;2022-12-18T05:06:05;24.15;;;10.32;;
10617;SDS011;5356;43.526;26.534;2022-12-18T05:08:32;13.77;;;7.30;;
10617;SDS011;5356;43.526;26.534;2022-12-18T05:10:59;18.00;;;7.85;;
10617;SDS011;5356;43.526;26.534;2022-12-18T05:13:26;20.85;;;8.57;;
10617;SDS011;5356;43.526;26.534;2022-12-18T05:15:53;20.25;;;10.55;;
10617;SDS011;5356;43.526;26.534;2022-12-18T05:18:19;18.70;;;8.25;;
10617;SDS011;5356;43.526;26.534;2022-12-18T05:20:44;21.67;;;9.18;;
10617;SDS011;5356;43.526;26.534;2022-12-18T05:23:09;15.80;;;8.63;;
10617;SDS011;5356;43.526;26.534;2022-12-18T05:25:35;16.67;;;9.18;;
10617;SDS011;5356;43.526;26.534;2022-12-18T05:28:00;19.02;;;8.88;;
10617;SDS011;5356;43.526;26.534;2022-12-18T05:30:26;18.02;;;9.15;;
10617;SDS011;5356;43.526;26.534;2022-12-18T05:32:52;17.10;;;8.15;;
10617;SDS011;5356;43.526;26.534;2022-12-18T05:35:18;19.05;;;8.50;;
10617;SDS011;5356;43.526;26.534;2022-12-18T05:37:43;19.75;;;8.88;;
10617;SDS011;5356;43.526;26.534;2022-12-18T05:40:09;17.45;;;8.68;;
10617;SDS011;5356;43.526;26.534;2022-12-18T05:42:35;22.02;;;10.18;;
10617;SDS011;5356;43.526;26.534;2022-12-18T05:45:00;21.08;;;10.45;;
10617;SDS011;5356;43.526;26.534;2022-12-18T05:47:26;20.02;;;10.23;;
10617;SDS011;5356;43.526;26.534;2022-12-18T05:49:53;19.02;;;10.20;;
10617;SDS011;5356;43.526;26.534;2022-12-18T05:52:19;20.60;;;9.98;;
10617;SDS011;5356;43.526;26.534;2022-12-18T05:54:45;20.10;;;9.25;;
10617;SDS011;5356;43.526;26.534;2022-12-18T05:57:10;18.40;;;9.50;;
10617;SDS011;5356;43.526;26.534;2022-12-18T05:59:36;21.38;;;10.75;;
10617;SDS011;5356;43.526;26.534;2022-12-18T06:02:01;19.08;;;8.90;;
10617;SDS011;5356;43.526;26.534;2022-12-18T06:04:27;15.57;;;8.18;;
10617;SDS011;5356;43.526;26.534;2022-12-18T06:06:55;18.38;;;8.88;;
10617;SDS011;5356;43.526;26.534;2022-12-18T06:09:20;21.13;;;8.95;;
10617;SDS011;5356;43.526;26.534;2022-12-18T06:11:46;17.20;;;9.10;;
10617;SDS011;5356;43.526;26.534;2022-12-18T06:14:11;14.85;;;8.02;;
10617;SDS011;5356;43.526;26.534;2022-12-18T06:16:37;19.67;;;9.25;;
10617;SDS011;5356;43.526;26.534;2022-12-18T06:19:03;19.33;;;9.48;;
10617;SDS011;5356;43.526;26.534;2022-12-18T06:21:31;21.13;;;9.25;;
10617;SDS011;5356;43.526;26.534;2022-12-18T06:23:57;21.30;;;11.23;;
10617;SDS011;5356;43.526;26.534;2022-12-18T06:26:23;21.27;;;10.07;;
10617;SDS011;5356;43.526;26.534;2022-12-18T06:28:49;19.05;;;9.70;;
10617;SDS011;5356;43.526;26.534;2022-12-18T06:31:14;19.92;;;9.85;;
10617;SDS011;5356;43.526;26.534;2022-12-18T06:33:40;21.70;;;9.93;;
10617;SDS011;5356;43.526;26.534;2022-12-18T06:36:10;24.77;;;11.07;;
10617;SDS011;5356;43.526;26.534;2022-12-18T06:38:37;20.42;;;10.20;;
10617;SDS011;5356;43.526;26.534;2022-12-18T06:41:11;22.63;;;10.35;;
10617;SDS011;5356;43.526;26.534;2022-12-18T06:43:43;24.50;;;11.05;;
10617;SDS011;5356;43.526;26.534;2022-12-18T06:46:09;24.35;;;12.45;;
10617;SDS011;5356;43.526;26.534;2022-12-18T06:48:34;25.13;;;12.30;;
10617;SDS011;5356;43.526;26.534;2022-12-18T06:51:00;27.92;;;13.35;;
10617;SDS011;5356;43.526;26.534;2022-12-18T06:53:26;30.90;;;13.50;;
10617;SDS011;5356;43.526;26.534;2022-12-18T06:55:52;27.50;;;12.05;;
10617;SDS011;5356;43.526;26.534;2022-12-18T06:58:24;32.30;;;13.57;;
10617;SDS011;5356;43.526;26.534;2022-12-18T07:00:49;26.30;;;11.98;;
10617;SDS011;5356;43.526;26.534;2022-12-18T07:03:15;26.05;;;11.77;;
10617;SDS011;5356;43.526;26.534;2022-12-18T07:05:40;28.23;;;13.13;;
10617;SDS011;5356;43.526;26.534;2022-12-18T07:08:06;25.48;;;11.77;;
10617;SDS011;5356;43.526;26.534;2022-12-18T07:10:32;28.52;;;13.48;;
10617;SDS011;5356;43.526;26.534;2022-12-18T07:12:57;34.63;;;14.35;;
10617;SDS011;5356;43.526;26.534;2022-12-18T07:15:23;33.38;;;14.65;;
10617;SDS011;5356;43.526;26.534;2022-12-18T07:17:48;23.88;;;11.88;;
10617;SDS011;5356;43.526;26.534;2022-12-18T07:20:13;27.80;;;11.95;;
10617;SDS011;5356;43.526;26.534;2022-12-18T07:22:39;27.30;;;12.70;;
10617;SDS011;5356;43.526;26.534;2022-12-18T07:25:04;49.55;;;18.58;;
10617;SDS011;5356;43.526;26.534;2022-12-18T07:27:31;29.42;;;13.75;;
10617;SDS011;5356;43.526;26.534;2022-12-18T07:29:56;32.60;;;14.18;;
10617;SDS011;5356;43.526;26.534;2022-12-18T07:32:22;27.95;;;12.45;;
10617;SDS011;5356;43.526;26.534;2022-12-18T07:34:47;24.02;;;11.52;;
10617;SDS011;5356;43.526;26.534;2022-12-18T07:37:13;30.85;;;14.27;;
10617;SDS011;5356;43.526;26.534;2022-12-18T07:39:38;36.75;;;13.85;;
10617;SDS011;5356;43.526;26.534;2022-12-18T07:42:03;27.25;;;13.55;;
10617;SDS011;5356;43.526;26.534;2022-12-18T07:44:47;29.85;;;13.77;;
10617;SDS011;5356;43.526;26.534;2022-12-18T07:47:13;30.15;;;11.75;;
10617;SDS011;5356;43.526;26.534;2022-12-18T07:49:38;30.85;;;11.55;;
10617;SDS011;5356;43.526;26.534;2022-12-18T07:52:04;26.98;;;12.48;;
10617;SDS011;5356;43.526;26.534;2022-12-18T07:54:29;33.67;;;12.93;;
10617;SDS011;5356;43.526;26.534;2022-12-18T07:56:55;24.88;;;12.07;;
10617;SDS011;5356;43.526;26.534;2022-12-18T07:59:20;26.05;;;12.93;;
10617;SDS011;5356;43.526;26.534;2022-12-18T08:01:45;23.40;;;11.68;;
10617;SDS011;5356;43.526;26.534;2022-12-18T08:04:11;23.13;;;10.25;;
10617;SDS011;5356;43.526;26.534;2022-12-18T08:06:36;25.52;;;11.82;;
10617;SDS011;5356;43.526;26.534;2022-12-18T08:09:02;25.80;;;11.68;;
10617;SDS011;5356;43.526;26.534;2022-12-18T08:11:28;24.95;;;13.25;;
10617;SDS011;5356;43.526;26.534;2022-12-18T08:13:54;22.77;;;11.65;;
10617;SDS011;5356;43.526;26.534;2022-12-18T08:16:20;22.25;;;11.02;;
10617;SDS011;5356;43.526;26.534;2022-12-18T08:18:47;26.20;;;12.40;;
10617;SDS011;5356;43.526;26.534;2022-12-18T08:21:14;25.52;;;11.43;;
10617;SDS011;5356;43.526;26.534;2022-12-18T08:23:41;21.58;;;11.20;;
10617;SDS011;5356;43.526;26.534;2022-12-18T08:26:07;25.67;;;13.05;;
10617;SDS011;5356;43.526;26.534;2022-12-18T08:28:34;25.00;;;11.32;;
10617;SDS011;5356;43.526;26.534;2022-12-18T08:31:00;38.17;;;16.83;;
10617;SDS011;5356;43.526;26.534;2022-12-18T08:33:25;25.52;;;12.77;;
10617;SDS011;5356;43.526;26.534;2022-12-18T08:35:51;29.38;;;12.25;;
10617;SDS011;5356;43.526;26.534;2022-12-18T08:38:17;31.63;;;13.07;;
10617;SDS011;5356;43.526;26.534;2022-12-18T08:40:42;26.30;;;12.05;;
10617;SDS011;5356;43.526;26.534;2022-12-18T08:43:09;29.50;;;14.30;;
10617;SDS011;5356;43.526;26.534;2022-12-18T08:45:54;31.05;;;12.35;;
10617;SDS011;5356;43.526;26.534;2022-12-18T08:48:19;26.65;;;12.63;;
10617;SDS011;5356;43.526;26.534;2022-12-18T08:51:18;27.55;;;12.32;;
10617;SDS011;5356;43.526;26.534;2022-12-18T08:53:37;26.27;;;11.20;;
10617;SDS011;5356;43.526;26.534;2022-12-18T08:56:03;25.38;;;12.27;;
10617;SDS011;5356;43.526;26.534;2022-12-18T08:58:29;23.70;;;12.02;;
10617;SDS011;5356;43.526;26.534;2022-12-18T09:00:59;21.13;;;11.05;;
10617;SDS011;5356;43.526;26.534;2022-12-18T09:03:27;21.67;;;11.27;;
10617;SDS011;5356;43.526;26.534;2022-12-18T09:05:53;34.38;;;13.13;;
10617;SDS011;5356;43.526;26.534;2022-12-18T09:08:18;26.20;;;11.68;;
10617;SDS011;5356;43.526;26.534;2022-12-18T09:10:44;26.80;;;12.25;;
10617;SDS011;5356;43.526;26.534;2022-12-18T09:13:11;23.30;;;12.25;;
10617;SDS011;5356;43.526;26.534;2022-12-18T09:15:42;25.50;;;11.00;;
10617;SDS011;5356;43.526;26.534;2022-12-18T09:18:10;36.63;;;14.52;;
10617;SDS011;5356;43.526;26.534;2022-12-18T09:20:36;25.98;;;11.85;;
10617;SDS011;5356;43.526;26.534;2022-12-18T09:23:02;25.00;;;11.32;;
10617;SDS011;5356;43.526;26.534;2022-12-18T09:25:28;27.40;;;12.60;;
10617;SDS011;5356;43.526;26.534;2022-12-18T09:30:38;33.58;;;14.05;;
10617;SDS011;5356;43.526;26.534;2022-12-18T09:33:04;30.17;;;12.80;;
10617;SDS011;5356;43.526;26.534;2022-12-18T09:35:30;29.08;;;11.80;;
10617;SDS011;5356;43.526;26.534;2022-12-18T09:37:55;29.67;;;11.77;;
10617;SDS011;5356;43.526;26.534;2022-12-18T09:40:22;24.13;;;12.02;;
10617;SDS011;5356;43.526;26.534;2022-12-18T09:43:00;32.47;;;12.23;;
10617;SDS011;5356;43.526;26.534;2022-12-18T09:45:30;25.50;;;11.43;;
10617;SDS011;5356;43.526;26.534;2022-12-18T09:48:04;27.25;;;10.82;;
10617;SDS011;5356;43.526;26.534;2022-12-18T09:50:35;23.30;;;11.68;;
10617;SDS011;5356;43.526;26.534;2022-12-18T09:53:05;29.13;;;12.48;;
10617;SDS011;5356;43.526;26.534;2022-12-18T09:55:36;29.58;;;13.27;;
10617;SDS011;5356;43.526;26.534;2022-12-18T10:00:35;24.98;;;12.15;;
10617;SDS011;5356;43.526;26.534;2022-12-18T10:03:08;23.98;;;11.52;;
10617;SDS011;5356;43.526;26.534;2022-12-18T10:08:23;31.08;;;14.05;;
10617;SDS011;5356;43.526;26.534;2022-12-18T10:14:18;24.38;;;11.98;;
10617;SDS011;5356;43.526;26.534;2022-12-18T10:17:02;26.17;;;11.88;;
10617;SDS011;5356;43.526;26.534;2022-12-18T10:27:25;23.88;;;12.32;;
10617;SDS011;5356;43.526;26.534;2022-12-18T10:29:52;23.63;;;11.85;;
10617;SDS011;5356;43.526;26.534;2022-12-18T10:32:23;25.77;;;12.35;;
10617;SDS011;5356;43.526;26.534;2022-12-18T10:34:53;29.52;;;12.80;;
10617;SDS011;5356;43.526;26.534;2022-12-18T10:37:22;30.63;;;14.68;;
10617;SDS011;5356;43.526;26.534;2022-12-18T10:42:37;29.38;;;15.13;;
10617;SDS011;5356;43.526;26.534;2022-12-18T10:45:05;31.92;;;13.98;;
10617;SDS011;5356;43.526;26.534;2022-12-18T10:47:35;30.48;;;14.30;;
10617;SDS011;5356;43.526;26.534;2022-12-18T10:50:10;28.88;;;11.73;;
10617;SDS011;5356;43.526;26.534;2022-12-18T10:52:53;30.25;;;14.32;;
10617;SDS011;5356;43.526;26.534;2022-12-18T10:55:20;24.38;;;12.48;;
10617;SDS011;5356;43.526;26.534;2022-12-18T10:57:46;29.48;;;12.57;;
10617;SDS011;5356;43.526;26.534;2022-12-18T11:00:26;25.73;;;12.48;;
10617;SDS011;5356;43.526;26.534;2022-12-18T11:02:54;26.70;;;11.45;;
10617;SDS011;5356;43.526;26.534;2022-12-18T11:05:25;38.22;;;16.25;;
10617;SDS011;5356;43.526;26.534;2022-12-18T11:07:56;31.90;;;15.90;;
10617;SDS011;5356;43.526;26.534;2022-12-18T11:10:25;35.75;;;15.82;;
10617;SDS011;5356;43.526;26.534;2022-12-18T11:13:14;27.92;;;13.40;;
10617;SDS011;5356;43.526;26.534;2022-12-18T11:15:43;25.67;;;13.50;;
10617;SDS011;5356;43.526;26.534;2022-12-18T11:20:57;25.25;;;10.63;;
10617;SDS011;5356;43.526;26.534;2022-12-18T11:23:26;24.42;;;11.82;;
10617;SDS011;5356;43.526;26.534;2022-12-18T11:25:56;28.65;;;13.82;;
10617;SDS011;5356;43.526;26.534;2022-12-18T11:28:27;26.25;;;11.85;;
10617;SDS011;5356;43.526;26.534;2022-12-18T11:34:00;34.05;;;11.80;;
10617;SDS011;5356;43.526;26.534;2022-12-18T11:36:33;28.20;;;12.60;;
10617;SDS011;5356;43.526;26.534;2022-12-18T11:39:07;27.27;;;12.98;;
10617;SDS011;5356;43.526;26.534;2022-12-18T11:41:43;28.30;;;12.45;;
10617;SDS011;5356;43.526;26.534;2022-12-18T11:50:14;34.28;;;13.80;;
10617;SDS011;5356;43.526;26.534;2022-12-18T11:52:43;41.38;;;16.08;;
10617;SDS011;5356;43.526;26.534;2022-12-18T11:55:13;31.05;;;14.45;;
10617;SDS011;5356;43.526;26.534;2022-12-18T12:00:28;50.30;;;17.77;;
10617;SDS011;5356;43.526;26.534;2022-12-18T12:26:30;26.63;;;13.23;;
10617;SDS011;5356;43.526;26.534;2022-12-18T12:40:39;30.15;;;13.13;;
10617;SDS011;5356;43.526;26.534;2022-12-18T12:43:22;28.65;;;12.05;;
10617;SDS011;5356;43.526;26.534;2022-12-18T12:45:51;28.33;;;13.18;;
10617;SDS011;5356;43.526;26.534;2022-12-18T12:53:38;38.20;;;14.50;;
10617;SDS011;5356;43.526;26.534;2022-12-18T12:56:06;44.72;;;19.15;;
10617;SDS011;5356;43.526;26.534;2022-12-18T12:58:41;28.98;;;13.48;;
10617;SDS011;5356;43.526;26.534;2022-12-18T13:04:33;29.77;;;13.63;;
10617;SDS011;5356;43.526;26.534;2022-12-18T13:09:36;62.33;;;22.48;;
10617;SDS011;5356;43.526;26.534;2022-12-18T13:25:51;26.00;;;11.98;;
10617;SDS011;5356;43.526;26.534;2022-12-18T13:34:11;27.83;;;12.32;;
10617;SDS011;5356;43.526;26.534;2022-12-18T13:36:43;34.33;;;13.75;;
10617;SDS011;5356;43.526;26.534;2022-12-18T13:41:47;26.02;;;12.02;;
10617;SDS011;5356;43.526;26.534;2022-12-18T13:47:25;29.42;;;12.23;;
10617;SDS011;5356;43.526;26.534;2022-12-18T13:49:56;26.95;;;13.75;;
10617;SDS011;5356;43.526;26.534;2022-12-18T13:52:22;30.20;;;12.40;;
10617;SDS011;5356;43.526;26.534;2022-12-18T13:54:55;34.42;;;14.70;;
10617;SDS011;5356;43.526;26.534;2022-12-18T13:57:29;31.17;;;15.02;;
10617;SDS011;5356;43.526;26.534;2022-12-18T13:59:57;31.17;;;12.98;;
10617;SDS011;5356;43.526;26.534;2022-12-18T14:02:24;26.00;;;12.45;;
10617;SDS011;5356;43.526;26.534;2022-12-18T14:04:52;25.33;;;12.07;;
10617;SDS011;5356;43.526;26.534;2022-12-18T14:09:49;25.23;;;12.30;;
10617;SDS011;5356;43.526;26.534;2022-12-18T14:12:25;27.75;;;11.82;;
10617;SDS011;5356;43.526;26.534;2022-12-18T14:20:25;29.63;;;13.57;;
10617;SDS011;5356;43.526;26.534;2022-12-18T14:22:52;27.05;;;11.77;;
10617;SDS011;5356;43.526;26.534;2022-12-18T14:27:50;40.65;;;14.73;;
10617;SDS011;5356;43.526;26.534;2022-12-18T14:33:05;28.85;;;11.75;;
10617;SDS011;5356;43.526;26.534;2022-12-18T14:35:39;33.53;;;12.98;;
10617;SDS011;5356;43.526;26.534;2022-12-18T14:40:36;31.23;;;13.40;;
10617;SDS011;5356;43.526;26.534;2022-12-18T14:43:02;27.52;;;12.35;;
10617;SDS011;5356;43.526;26.534;2022-12-18T14:48:14;29.75;;;14.23;;
10617;SDS011;5356;43.526;26.534;2022-12-18T14:51:02;32.65;;;14.88;;
10617;SDS011;5356;43.526;26.534;2022-12-18T14:53:40;34.65;;;16.52;;
10617;SDS011;5356;43.526;26.534;2022-12-18T14:56:32;42.88;;;19.10;;
10617;SDS011;5356;43.526;26.534;2022-12-18T14:59:01;38.13;;;16.35;;
10617;SDS011;5356;43.526;26.534;2022-12-18T15:01:36;31.40;;;14.75;;
10617;SDS011;5356;43.526;26.534;2022-12-18T15:04:04;29.13;;;13.95;;
10617;SDS011;5356;43.526;26.534;2022-12-18T15:09:23;31.95;;;13.88;;
10617;SDS011;5356;43.526;26.534;2022-12-18T15:11:54;35.08;;;14.50;;
10617;SDS011;5356;43.526;26.534;2022-12-18T15:17:26;28.40;;;12.70;;
10617;SDS011;5356;43.526;26.534;2022-12-18T15:19:53;25.73;;;11.80;;
10617;SDS011;5356;43.526;26.534;2022-12-18T15:22:27;25.70;;;12.90;;
10617;SDS011;5356;43.526;26.534;2022-12-18T15:24:55;28.27;;;12.73;;
10617;SDS011;5356;43.526;26.534;2022-12-18T15:27:32;27.92;;;13.25;;
10617;SDS011;5356;43.526;26.534;2022-12-18T15:35:22;31.33;;;12.75;;
10617;SDS011;5356;43.526;26.534;2022-12-18T15:37:49;34.50;;;15.27;;
10617;SDS011;5356;43.526;26.534;2022-12-18T15:40:17;29.83;;;14.13;;
10617;SDS011;5356;43.526;26.534;2022-12-18T15:42:44;36.10;;;15.50;;
10617;SDS011;5356;43.526;26.534;2022-12-18T15:45:29;31.75;;;15.55;;
10617;SDS011;5356;43.526;26.534;2022-12-18T15:47:55;30.40;;;14.02;;
10617;SDS011;5356;43.526;26.534;2022-12-18T15:50:20;38.70;;;14.82;;
10617;SDS011;5356;43.526;26.534;2022-12-18T15:52:47;42.85;;;18.77;;
10617;SDS011;5356;43.526;26.534;2022-12-18T15:55:18;36.78;;;17.02;;
10617;SDS011;5356;43.526;26.534;2022-12-18T15:58:04;34.70;;;15.80;;
10617;SDS011;5356;43.526;26.534;2022-12-18T16:00:31;35.03;;;15.20;;
10617;SDS011;5356;43.526;26.534;2022-12-18T16:02:58;29.98;;;12.50;;
10617;SDS011;5356;43.526;26.534;2022-12-18T16:05:24;31.05;;;14.70;;
10617;SDS011;5356;43.526;26.534;2022-12-18T16:07:51;28.25;;;13.18;;
10617;SDS011;5356;43.526;26.534;2022-12-18T16:10:16;30.25;;;13.70;;
10617;SDS011;5356;43.526;26.534;2022-12-18T16:12:42;28.10;;;13.77;;
10617;SDS011;5356;43.526;26.534;2022-12-18T16:15:08;29.88;;;13.32;;
10617;SDS011;5356;43.526;26.534;2022-12-18T16:17:38;32.83;;;14.45;;
10617;SDS011;5356;43.526;26.534;2022-12-18T16:20:04;34.17;;;15.00;;
10617;SDS011;5356;43.526;26.534;2022-12-18T16:22:30;33.38;;;14.70;;
10617;SDS011;5356;43.526;26.534;2022-12-18T16:24:56;42.72;;;21.83;;
10617;SDS011;5356;43.526;26.534;2022-12-18T16:27:22;45.08;;;18.65;;
10617;SDS011;5356;43.526;26.534;2022-12-18T16:29:49;39.03;;;16.95;;
10617;SDS011;5356;43.526;26.534;2022-12-18T16:32:16;37.53;;;16.83;;
10617;SDS011;5356;43.526;26.534;2022-12-18T16:34:44;30.88;;;15.55;;
10617;SDS011;5356;43.526;26.534;2022-12-18T16:37:11;33.17;;;13.88;;
10617;SDS011;5356;43.526;26.534;2022-12-18T16:39:38;31.58;;;15.77;;
10617;SDS011;5356;43.526;26.534;2022-12-18T16:42:05;34.78;;;15.98;;
10617;SDS011;5356;43.526;26.534;2022-12-18T16:44:39;37.83;;;14.93;;
10617;SDS011;5356;43.526;26.534;2022-12-18T16:47:05;29.65;;;13.43;;
10617;SDS011;5356;43.526;26.534;2022-12-18T16:49:30;32.55;;;14.43;;
10617;SDS011;5356;43.526;26.534;2022-12-18T16:51:56;34.25;;;14.45;;
10617;SDS011;5356;43.526;26.534;2022-12-18T16:54:22;31.73;;;14.95;;
10617;SDS011;5356;43.526;26.534;2022-12-18T16:56:47;31.50;;;15.38;;
10617;SDS011;5356;43.526;26.534;2022-12-18T16:59:15;35.33;;;15.82;;
10617;SDS011;5356;43.526;26.534;2022-12-18T17:01:41;30.35;;;13.90;;
10617;SDS011;5356;43.526;26.534;2022-12-18T17:04:07;31.40;;;14.45;;
10617;SDS011;5356;43.526;26.534;2022-12-18T17:06:34;35.05;;;14.45;;
10617;SDS011;5356;43.526;26.534;2022-12-18T17:09:05;34.63;;;15.90;;
10617;SDS011;5356;43.526;26.534;2022-12-18T17:11:32;33.95;;;14.98;;
10617;SDS011;5356;43.526;26.534;2022-12-18T17:14:04;41.45;;;18.00;;
10617;SDS011;5356;43.526;26.534;2022-12-18T17:16:34;37.17;;;16.08;;
10617;SDS011;5356;43.526;26.534;2022-12-18T17:18:59;38.08;;;15.93;;
10617;SDS011;5356;43.526;26.534;2022-12-18T17:21:25;36.55;;;14.18;;
10617;SDS011;5356;43.526;26.534;2022-12-18T17:23:51;38.47;;;16.38;;